createdAt,value
2022-10-13T00:01:57.747Z,101314.03
2022-10-13T00:05:00.109Z,101311.81
2022-10-13T00:08:03.216Z,101315.16
2022-10-13T00:11:10.806Z,101313.59
2022-10-13T00:14:13.163Z,101318.13
2022-10-13T00:17:15.655Z,101326.91
2022-10-13T00:20:18.177Z,101320.13
2022-10-13T00:23:20.644Z,101318.47
2022-10-13T00:26:25.136Z,101316.75
2022-10-13T00:29:27.483Z,101317.47
2022-10-13T00:32:30.094Z,101313.16
2022-10-13T00:35:33.707Z,101313.94
2022-10-13T00:38:36.164Z,101313.34
2022-10-13T00:41:38.509Z,101312.69
2022-10-13T00:45:19.771Z,101303.50
2022-10-13T00:48:28.636Z,101304.31
2022-10-13T00:51:36.399Z,101301.00
2022-10-13T00:54:38.908Z,101302.03
2022-10-13T00:57:44.400Z,101308.34
2022-10-13T01:00:49.137Z,101292.16
2022-10-13T01:03:52.692Z,101297.16
2022-10-13T01:06:56.559Z,101304.16
2022-10-13T01:10:01.123Z,101299.09
2022-10-13T01:13:23.458Z,101298.22
2022-10-13T01:16:46.799Z,101300.78
2022-10-13T01:20:09.378Z,101300.00
2022-10-13T01:23:30.055Z,101298.16
2022-10-13T01:27:01.994Z,101303.41
2022-10-13T01:30:16.583Z,101300.97
2022-10-13T01:33:44.288Z,101297.59
2022-10-13T01:37:05.272Z,101300.25
2022-10-13T01:40:21.354Z,101295.25
2022-10-13T01:43:31.837Z,101293.53
2022-10-13T01:46:37.646Z,101304.47
2022-10-13T01:49:41.056Z,101306.16
2022-10-13T01:52:43.898Z,101290.88
2022-10-13T01:55:58.609Z,101298.81
2022-10-13T01:59:07.857Z,101297.91
2022-10-13T02:02:24.396Z,101292.88
2022-10-13T02:05:49.440Z,101294.69
2022-10-13T02:09:06.330Z,101295.69
2022-10-13T02:12:17.409Z,101295.63
2022-10-13T02:15:25.625Z,101290.47
2022-10-13T02:18:33.718Z,101289.59
2022-10-13T02:21:36.076Z,101288.75
2022-10-13T02:24:38.725Z,101293.91
2022-10-13T02:27:41.620Z,101294.78
2022-10-13T02:30:45.609Z,101288.03
2022-10-13T02:33:48.067Z,101284.75
2022-10-13T02:36:50.425Z,101279.59
2022-10-13T02:39:52.888Z,101284.69
2022-10-13T02:42:55.383Z,101273.63
2022-10-13T02:45:57.744Z,101281.56
2022-10-13T02:49:00.312Z,101280.78
2022-10-13T02:52:04.418Z,101284.25
2022-10-13T02:55:07.478Z,101290.19
2022-10-13T02:58:09.882Z,101288.41
2022-10-13T03:01:15.421Z,101286.91
2022-10-13T03:04:17.974Z,101285.25
2022-10-13T03:07:20.396Z,101283.72
2022-10-13T03:10:22.937Z,101275.25
2022-10-13T03:13:27.611Z,101277.88
2022-10-13T03:16:36.064Z,101281.47
2022-10-13T03:19:38.548Z,101288.28
2022-10-13T03:22:40.850Z,101279.19
2022-10-13T03:25:43.307Z,101288.75
2022-10-13T03:28:50.644Z,101282.78
2022-10-13T03:31:53.038Z,101280.19
2022-10-13T03:34:55.395Z,101281.19
2022-10-13T03:37:57.800Z,101287.19
2022-10-13T03:41:26.799Z,101283.69
2022-10-13T03:44:29.158Z,101289.75
2022-10-13T03:47:31.662Z,101278.84
2022-10-13T03:50:34.120Z,101278.97
2022-10-13T03:53:36.748Z,101278.97
2022-10-13T03:56:39.843Z,101279.78
2022-10-13T03:59:42.424Z,101280.63
2022-10-13T04:02:44.820Z,101281.63
2022-10-13T04:05:47.684Z,101278.06
2022-10-13T04:08:51.749Z,101280.53
2022-10-13T04:11:54.330Z,101283.19
2022-10-13T04:14:56.832Z,101283.25
2022-10-13T04:17:59.152Z,101283.31
2022-10-13T04:21:01.633Z,101285.81
2022-10-13T04:24:05.383Z,101285.94
2022-10-13T04:27:07.850Z,101274.88
2022-10-13T04:30:13.472Z,101275.72
2022-10-13T04:33:16.093Z,101277.56
2022-10-13T04:36:19.525Z,101281.03
2022-10-13T04:39:25.461Z,101274.16
2022-10-13T04:42:27.922Z,101274.16
2022-10-13T04:45:30.471Z,101268.31
2022-10-13T04:48:33.051Z,101274.25
2022-10-13T04:51:35.468Z,101287.19
2022-10-13T04:54:37.933Z,101290.56
2022-10-13T04:57:40.403Z,101285.34
2022-10-13T05:00:46.877Z,101287.03
2022-10-13T05:04:07.940Z,101282.63
2022-10-13T05:07:18.023Z,101286.16
2022-10-13T05:10:21.170Z,101288.63
2022-10-13T05:13:25.321Z,101293.69
2022-10-13T05:16:28.032Z,101293.56
2022-10-13T05:19:30.985Z,101290.66
2022-10-13T05:22:33.789Z,101299.09
2022-10-13T05:25:37.872Z,101297.22
2022-10-13T05:28:41.124Z,101299.59
2022-10-13T05:31:43.735Z,101301.00
2022-10-13T05:34:48.938Z,101303.81
2022-10-13T05:37:51.615Z,101301.97
2022-10-13T05:40:54.060Z,101306.97
2022-10-13T05:44:05.175Z,101308.66
2022-10-13T05:47:07.879Z,101311.09
2022-10-13T05:50:10.575Z,101310.25
2022-10-13T05:53:16.067Z,101306.03
2022-10-13T05:56:23.875Z,101313.44
2022-10-13T05:59:29.692Z,101317.50
2022-10-13T06:02:37.889Z,101324.06
2022-10-13T06:05:43.101Z,101312.63
2022-10-13T06:08:45.809Z,101317.22
2022-10-13T06:11:48.331Z,101316.41
2022-10-13T06:14:51.410Z,101328.13
2022-10-13T06:17:54.104Z,101325.19
2022-10-13T06:20:56.644Z,101331.00
2022-10-13T06:23:59.209Z,101329.94
2022-10-13T06:27:01.665Z,101325.22
2022-10-13T06:30:04.837Z,101325.31
2022-10-13T06:33:07.325Z,101325.41
2022-10-13T06:36:10.841Z,101320.03
2022-10-13T06:39:13.271Z,101319.22
2022-10-13T06:42:16.362Z,101326.00
2022-10-13T06:45:19.642Z,101327.31
2022-10-13T06:48:22.190Z,101324.38
2022-10-13T06:51:24.729Z,101316.38
2022-10-13T06:54:27.230Z,101326.38
2022-10-13T06:57:29.719Z,101322.34
2022-10-13T07:00:33.969Z,101320.91
2022-10-13T07:03:36.410Z,101319.84
2022-10-13T07:06:39.008Z,101316.22
2022-10-13T07:09:41.561Z,101320.47
2022-10-13T07:12:44.023Z,101317.69
2022-10-13T07:15:46.690Z,101319.75
2022-10-13T07:18:49.458Z,101331.69
2022-10-13T07:21:52.295Z,101326.41
2022-10-13T07:24:55.347Z,101324.28
2022-10-13T07:28:00.795Z,101319.72
2022-10-13T07:31:16.375Z,101313.31
2022-10-13T07:34:18.799Z,101307.94
2022-10-13T07:37:21.932Z,101322.16
2022-10-13T07:40:25.272Z,101324.56
2022-10-13T07:43:27.836Z,101319.50
2022-10-13T07:46:30.765Z,101318.50
2022-10-13T07:49:33.178Z,101326.38
2022-10-13T07:52:39.651Z,101317.09
2022-10-13T07:55:44.187Z,101320.53
2022-10-13T07:58:47.427Z,101311.63
2022-10-13T08:01:49.972Z,101316.69
2022-10-13T08:04:52.666Z,101316.63
2022-10-13T08:07:58.298Z,101313.38
2022-10-13T08:11:06.781Z,101308.25
2022-10-13T08:14:12.091Z,101299.47
2022-10-13T08:17:14.655Z,101298.31
2022-10-13T08:20:17.347Z,101299.25
2022-10-13T08:23:23.839Z,101296.91
2022-10-13T08:26:29.370Z,101288.78
2022-10-13T08:29:32.156Z,101289.97
2022-10-13T08:32:34.648Z,101289.88
2022-10-13T08:35:37.514Z,101290.63
2022-10-13T08:38:40.714Z,101286.75
2022-10-13T08:41:44.676Z,101290.97
2022-10-13T08:45:39.803Z,101292.28
2022-10-13T08:48:28.013Z,101290.59
2022-10-13T08:51:30.476Z,101289.66
2022-10-13T08:54:33.511Z,101291.06
2022-10-13T08:57:35.939Z,101291.31
2022-10-13T09:00:39.077Z,101291.66
2022-10-13T09:03:54.500Z,101288.72
2022-10-13T09:07:04.761Z,101290.97
2022-10-13T09:10:09.858Z,101297.28
2022-10-13T09:13:12.342Z,101295.28
2022-10-13T09:16:15.423Z,101293.84
2022-10-13T09:19:41.017Z,101293.00
2022-10-13T09:22:44.887Z,101292.03
2022-10-13T09:25:50.178Z,101278.31
2022-10-13T09:28:53.165Z,101280.06
2022-10-13T09:32:18.405Z,101284.38
2022-10-13T09:35:22.646Z,101285.81
2022-10-13T09:38:26.027Z,101286.81
2022-10-13T09:41:28.476Z,101280.59
2022-10-13T09:44:32.095Z,101279.56
2022-10-13T09:47:34.961Z,101275.25
2022-10-13T09:50:39.888Z,101273.31
2022-10-13T09:53:47.685Z,101275.06
2022-10-13T09:56:58.079Z,101276.25
2022-10-13T10:00:05.111Z,101262.44
2022-10-13T10:03:26.167Z,101262.63
2022-10-13T10:06:28.546Z,101264.34
2022-10-13T10:09:44.915Z,101252.09
2022-10-13T10:12:49.323Z,101251.25
2022-10-13T10:16:13.492Z,101245.19
2022-10-13T10:19:29.095Z,101236.09
2022-10-13T10:22:52.787Z,101223.81
2022-10-13T10:26:04.256Z,101219.13
2022-10-13T10:29:24.593Z,101222.44
2022-10-13T10:32:27.104Z,101221.66
2022-10-13T10:35:44.382Z,101220.63
2022-10-13T10:38:53.299Z,101206.75
2022-10-13T10:42:17.220Z,101204.25
2022-10-13T10:45:26.244Z,101203.78
2022-10-13T10:48:35.068Z,101197.41
2022-10-13T10:51:39.362Z,101197.53
2022-10-13T10:54:51.108Z,101191.28
2022-10-13T10:58:16.900Z,101183.75
2022-10-13T11:01:38.250Z,101179.88
2022-10-13T11:04:52.752Z,101172.78
2022-10-13T11:07:57.369Z,101163.91
2022-10-13T11:11:37.953Z,101160.53
2022-10-13T11:15:21.758Z,101154.47
2022-10-13T11:18:52.505Z,101147.06
2022-10-13T11:22:11.243Z,101136.69
2022-10-13T11:25:37.327Z,101139.09
2022-10-13T11:28:40.407Z,101128.31
2022-10-13T11:32:54.046Z,101127.97
2022-10-13T11:35:56.701Z,101121.59
2022-10-13T11:39:21.222Z,101114.16
2022-10-13T11:42:32.627Z,101113.41
2022-10-13T11:46:04.834Z,101111.13
2022-10-13T11:49:31.142Z,101099.22
2022-10-13T11:53:05.242Z,101100.25
2022-10-13T11:56:57.526Z,101104.97
2022-10-13T12:00:00.033Z,101095.50
2022-10-13T12:03:04.992Z,101092.56
2022-10-13T12:06:33.451Z,101087.19
2022-10-13T12:09:50.083Z,101086.81
2022-10-13T12:12:53.799Z,101086.56
2022-10-13T12:16:07.189Z,101082.44
2022-10-13T12:19:20.415Z,101077.34
2022-10-13T12:22:23.184Z,101076.63
2022-10-13T12:25:30.426Z,101077.44
2022-10-13T12:28:53.599Z,101076.59
2022-10-13T12:31:58.228Z,101075.38
2022-10-13T12:35:16.239Z,101075.81
2022-10-13T12:38:21.749Z,101073.25
2022-10-13T12:41:30.910Z,101076.69
2022-10-13T12:44:34.006Z,101071.13
2022-10-13T12:47:40.107Z,101065.78
2022-10-13T12:50:44.167Z,101064.19
2022-10-13T12:53:48.031Z,101060.25
2022-10-13T12:56:55.352Z,101060.31
2022-10-13T12:59:59.055Z,101056.72
2022-10-13T13:03:05.491Z,101051.59
2022-10-13T13:06:13.537Z,101049.31
2022-10-13T13:09:23.125Z,101044.28
2022-10-13T13:12:28.645Z,101045.34
2022-10-13T13:15:35.709Z,101048.00
2022-10-13T13:18:41.799Z,101040.13
2022-10-13T13:21:44.288Z,101041.91
2022-10-13T13:24:47.362Z,101035.44
2022-10-13T13:27:50.220Z,101041.25
2022-10-13T13:30:53.898Z,101033.22
2022-10-13T13:33:56.354Z,101035.84
2022-10-13T13:37:02.014Z,101028.63
2022-10-13T13:40:06.638Z,101035.03
2022-10-13T13:43:09.527Z,101035.41
2022-10-13T13:46:17.150Z,101030.47
2022-10-13T13:49:19.536Z,101035.50
2022-10-13T13:52:23.324Z,101031.25
2022-10-13T13:55:27.491Z,101034.41
2022-10-13T13:58:29.886Z,101029.19
2022-10-13T14:01:32.520Z,101021.38
2022-10-13T14:04:34.985Z,101029.19
2022-10-13T14:07:37.370Z,101021.84
2022-10-13T14:10:41.206Z,101024.66
2022-10-13T14:13:43.656Z,101028.56
2022-10-13T14:16:47.729Z,101028.78
2022-10-13T14:19:50.176Z,101024.06
2022-10-13T14:22:52.635Z,101020.94
2022-10-13T14:25:55.043Z,101024.91
2022-10-13T14:28:58.364Z,101018.63
2022-10-13T14:32:01.058Z,101017.56
2022-10-13T14:35:04.444Z,101008.78
2022-10-13T14:38:06.885Z,101012.25
2022-10-13T14:41:10.638Z,101007.66
2022-10-13T14:44:14.059Z,101005.47
2022-10-13T14:47:20.730Z,101009.66
2022-10-13T14:50:23.382Z,101005.47
2022-10-13T14:53:42.380Z,100997.81
2022-10-13T14:56:44.930Z,100996.94
2022-10-13T14:59:47.589Z,101005.06
2022-10-13T15:02:49.915Z,100998.19
2022-10-13T15:05:52.204Z,100999.41
2022-10-13T15:08:58.974Z,101007.59
2022-10-13T15:12:01.494Z,101011.31
2022-10-13T15:15:04.491Z,101011.59
2022-10-13T15:18:06.877Z,101011.06
2022-10-13T15:21:09.347Z,101008.53
2022-10-13T15:24:12.003Z,101008.44
2022-10-13T15:27:17.831Z,101010.53
2022-10-13T15:30:20.359Z,101004.63
2022-10-13T15:33:23.275Z,101011.72
2022-10-13T15:36:26.201Z,101004.47
2022-10-13T15:39:28.533Z,101008.84
2022-10-13T15:42:31.003Z,101007.03
2022-10-13T15:45:33.660Z,101008.28
2022-10-13T15:48:36.077Z,101009.63
2022-10-13T15:51:38.410Z,101007.84
2022-10-13T15:54:40.969Z,101009.47
2022-10-13T15:57:44.171Z,101006.59
2022-10-13T16:00:46.696Z,101008.28
2022-10-13T16:03:54.719Z,101007.94
2022-10-13T16:06:57.276Z,101010.06
2022-10-13T16:10:00.232Z,101006.78
2022-10-13T16:13:02.695Z,101010.59
2022-10-13T16:16:05.275Z,101009.59
2022-10-13T16:19:07.613Z,101005.28
2022-10-13T16:22:10.075Z,101010.25
2022-10-13T16:25:12.552Z,101006.06
2022-10-13T16:28:15.235Z,101017.84
2022-10-13T16:31:17.785Z,101008.41
2022-10-13T16:34:20.644Z,101014.97
2022-10-13T16:37:23.805Z,101016.88
2022-10-13T16:40:32.734Z,101026.00
2022-10-13T16:43:35.754Z,101019.06
2022-10-13T16:46:38.187Z,101028.19
2022-10-13T16:49:40.693Z,101019.25
2022-10-13T16:52:46.140Z,101019.81
2022-10-13T16:55:48.643Z,101028.06
2022-10-13T16:59:02.232Z,101026.31
2022-10-13T17:02:04.694Z,101019.84
2022-10-13T17:05:07.588Z,101013.41
2022-10-13T17:08:09.984Z,101021.63
2022-10-13T17:11:18.623Z,101017.91
2022-10-13T17:14:21.033Z,101018.41
2022-10-13T17:17:23.513Z,101019.38
2022-10-13T17:20:26.178Z,101016.78
2022-10-13T17:23:29.790Z,101022.06
2022-10-13T17:26:32.149Z,101014.69
2022-10-13T17:29:34.480Z,101016.09
2022-10-13T17:32:38.709Z,101020.28
2022-10-13T17:35:41.071Z,101024.00
2022-10-13T17:38:44.284Z,101022.56
2022-10-13T17:41:46.710Z,101020.47
2022-10-13T17:44:49.661Z,101008.66
2022-10-13T17:47:52.139Z,101012.22
2022-10-13T17:51:02.350Z,101008.19
2022-10-13T17:54:05.103Z,101013.34
2022-10-13T17:57:07.512Z,101011.31
2022-10-13T18:00:10.545Z,101014.31
2022-10-13T18:03:15.706Z,101012.03
2022-10-13T18:06:19.518Z,101020.50
2022-10-13T18:09:24.280Z,101021.59
2022-10-13T18:12:26.623Z,101026.03
2022-10-13T18:15:29.111Z,101026.00
2022-10-13T18:18:31.764Z,101019.91
2022-10-13T18:21:34.169Z,101020.50
2022-10-13T18:24:36.611Z,101021.31
2022-10-13T18:27:39.000Z,101017.16
2022-10-13T18:30:41.392Z,101022.81
2022-10-13T18:33:44.200Z,101018.50
2022-10-13T18:36:50.366Z,101019.53
2022-10-13T18:39:52.746Z,101015.91
2022-10-13T18:42:55.123Z,101014.47
2022-10-13T18:46:01.410Z,101015.44
2022-10-13T18:49:04.962Z,101015.25
2022-10-13T18:52:07.416Z,101010.13
2022-10-13T18:55:13.560Z,101009.00
2022-10-13T18:58:15.976Z,101010.47
2022-10-13T19:01:20.814Z,101018.19
2022-10-13T19:04:23.267Z,101010.09
2022-10-13T19:07:26.126Z,101016.25
2022-10-13T19:10:30.829Z,101005.75
2022-10-13T19:13:33.240Z,101009.94
2022-10-13T19:16:38.527Z,101007.31
2022-10-13T19:19:41.478Z,101007.31
2022-10-13T19:22:43.890Z,101006.13
2022-10-13T19:25:49.369Z,101007.88
2022-10-13T19:29:07.749Z,101012.09
2022-10-13T19:32:10.106Z,101016.16
2022-10-13T19:35:12.770Z,101008.00
2022-10-13T19:38:16.172Z,101012.28
2022-10-13T19:41:18.816Z,101012.91
2022-10-13T19:44:23.115Z,101006.19
2022-10-13T19:47:25.522Z,101012.16
2022-10-13T19:50:28.344Z,101010.66
2022-10-13T19:53:30.752Z,101007.75
2022-10-13T19:56:34.068Z,101016.94
2022-10-13T19:59:37.518Z,101010.91
2022-10-13T20:02:39.839Z,101010.19
2022-10-13T20:05:42.452Z,101021.25
2022-10-13T20:08:45.431Z,101010.81
2022-10-13T20:11:50.421Z,101005.59
2022-10-13T20:14:52.797Z,101013.22
2022-10-13T20:17:55.150Z,101015.94
2022-10-13T20:21:01.755Z,101011.97
2022-10-13T20:24:04.221Z,101010.19
2022-10-13T20:27:06.527Z,101005.78
2022-10-13T20:30:09.997Z,101003.13
2022-10-13T20:33:12.416Z,101001.22
2022-10-13T20:36:17.358Z,101001.44
2022-10-13T20:39:19.774Z,100997.25
2022-10-13T20:42:22.168Z,100995.59
2022-10-13T20:45:24.894Z,100998.13
2022-10-13T20:48:51.111Z,100997.38
2022-10-13T20:51:53.530Z,100996.41
2022-10-13T20:54:55.874Z,100993.28
2022-10-13T20:57:59.253Z,100986.44
2022-10-13T21:01:02.461Z,100996.00
2022-10-13T21:04:05.226Z,100989.31
2022-10-13T21:07:07.630Z,100993.63
2022-10-13T21:10:10.227Z,100989.63
2022-10-13T21:13:14.039Z,100991.78
2022-10-13T21:16:19.206Z,100983.44
2022-10-13T21:19:21.801Z,100986.53
2022-10-13T21:22:24.160Z,100984.44
2022-10-13T21:25:28.005Z,100991.88
2022-10-13T21:28:37.348Z,100989.72
2022-10-13T21:31:39.675Z,100982.41
2022-10-13T21:34:42.030Z,100989.31
2022-10-13T21:37:44.390Z,100981.81
2022-10-13T21:40:49.378Z,100982.09
2022-10-13T21:43:56.118Z,100977.22
2022-10-13T21:46:58.574Z,100969.59
2022-10-13T21:50:01.575Z,100982.03
2022-10-13T21:53:03.960Z,100982.50
2022-10-13T21:56:08.241Z,100981.13
2022-10-13T21:59:12.677Z,100983.31
2022-10-13T22:02:15.139Z,100974.13
2022-10-13T22:05:17.588Z,100971.91
2022-10-13T22:08:37.680Z,100971.25
2022-10-13T22:11:44.993Z,100969.28
2022-10-13T22:14:47.428Z,100968.13
2022-10-13T22:17:49.792Z,100967.69
2022-10-13T22:20:52.819Z,100977.59
2022-10-13T22:23:59.756Z,100967.34
2022-10-13T22:27:02.116Z,100971.69
2022-10-13T22:30:04.797Z,100974.31
2022-10-13T22:33:07.273Z,100974.06
2022-10-13T22:36:31.665Z,100970.78
2022-10-13T22:39:34.170Z,100976.84
2022-10-13T22:42:44.064Z,100971.84
2022-10-13T22:45:50.983Z,100978.81
2022-10-13T22:48:53.853Z,100968.00
2022-10-13T22:51:56.231Z,100971.78
2022-10-13T22:54:58.541Z,100973.69
2022-10-13T22:58:00.855Z,100985.88
2022-10-13T23:01:08.939Z,100986.94
2022-10-13T23:04:11.331Z,100984.69
2022-10-13T23:07:13.704Z,100987.38
2022-10-13T23:10:17.423Z,100985.06
2022-10-13T23:13:19.812Z,100988.91
2022-10-13T23:16:26.441Z,100984.88
2022-10-13T23:19:28.869Z,100985.22
2022-10-13T23:22:31.406Z,100985.53
2022-10-13T23:25:34.972Z,100983.09
2022-10-13T23:28:38.222Z,100989.38
2022-10-13T23:31:40.653Z,100992.22
2022-10-13T23:34:42.998Z,100990.56
2022-10-13T23:37:45.691Z,100988.25
2022-10-13T23:40:49.439Z,100987.50
2022-10-13T23:43:52.236Z,100987.50
2022-10-13T23:46:54.532Z,100992.75
2022-10-13T23:49:56.925Z,100991.88
2022-10-13T23:52:59.345Z,100987.72
2022-10-13T23:56:03.937Z,100990.53
2022-10-13T23:59:06.519Z,100987.53
